createdAt,value
2022-12-11T00:00:24.917Z,929.7
2022-12-11T00:01:26.672Z,929.7
2022-12-11T00:02:28.494Z,929.7
2022-12-11T00:03:30.793Z,929.8
2022-12-11T00:04:32.654Z,929.6
2022-12-11T00:05:34.614Z,929.7
2022-12-11T00:06:36.290Z,929.7
2022-12-11T00:07:38.028Z,929.7
2022-12-11T00:08:39.893Z,929.7
2022-12-11T00:09:41.632Z,929.7
2022-12-11T00:10:43.390Z,929.7
2022-12-11T00:11:45.334Z,929.7
2022-12-11T00:12:47.055Z,929.7
2022-12-11T00:13:48.933Z,929.6
2022-12-11T00:14:50.687Z,929.4
2022-12-11T00:15:52.320Z,929.4
2022-12-11T00:16:54.197Z,929.4
2022-12-11T00:17:56.145Z,929.5
2022-12-11T00:18:57.764Z,929.5
2022-12-11T00:19:59.621Z,929.5
2022-12-11T00:21:01.473Z,929.5
2022-12-11T00:22:03.437Z,929.4
2022-12-11T00:23:05.282Z,929.3
2022-12-11T00:24:07.142Z,929.4
2022-12-11T00:25:10.175Z,929.4
2022-12-11T00:26:12.494Z,929.5
2022-12-11T00:27:14.454Z,929.5
2022-12-11T00:28:16.186Z,929.5
2022-12-11T00:29:17.790Z,929.4
2022-12-11T00:30:22.532Z,929.4
2022-12-11T00:31:24.579Z,929.5
2022-12-11T00:32:31.623Z,929.4
2022-12-11T00:33:39.058Z,929.3
2022-12-11T00:34:40.802Z,929.4
2022-12-11T00:35:42.621Z,929.4
2022-12-11T00:36:44.479Z,929.5
2022-12-11T00:37:46.322Z,929.5
2022-12-11T00:38:47.972Z,929.3
2022-12-11T00:39:49.746Z,929.2
2022-12-11T00:40:51.375Z,929.3
2022-12-11T00:41:53.325Z,929.4
2022-12-11T00:42:57.940Z,929.4
2022-12-11T00:43:59.786Z,929.3
2022-12-11T00:45:01.453Z,929.3
2022-12-11T00:46:03.511Z,929.2
2022-12-11T00:47:08.299Z,929.2
2022-12-11T00:48:09.968Z,929.3
2022-12-11T00:49:11.616Z,929.4
2022-12-11T00:50:16.035Z,929.4
2022-12-11T00:51:17.745Z,929.4
2022-12-11T00:52:19.705Z,929.4
2022-12-11T00:53:21.447Z,929.3
2022-12-11T00:54:23.088Z,929.2
2022-12-11T00:55:24.950Z,929.2
2022-12-11T00:56:26.875Z,929.3
2022-12-11T00:57:28.651Z,929.4
2022-12-11T00:58:30.397Z,929.4
2022-12-11T00:59:32.139Z,929.3
2022-12-11T01:00:33.884Z,929.3
2022-12-11T01:01:36.180Z,929.3
2022-12-11T01:02:38.468Z,929.4
2022-12-11T01:03:40.259Z,929.5
2022-12-11T01:04:42.008Z,929.5
2022-12-11T01:05:43.983Z,929.5
2022-12-11T01:06:45.729Z,929.5
2022-12-11T01:07:47.693Z,929.5
2022-12-11T01:08:49.503Z,929.5
2022-12-11T01:09:51.251Z,929.3
2022-12-11T01:10:53.125Z,929.5
2022-12-11T01:11:55.178Z,929.6
2022-12-11T01:12:56.926Z,929.5
2022-12-11T01:13:58.683Z,929.5
2022-12-11T01:15:00.509Z,929.5
2022-12-11T01:16:02.253Z,929.6
2022-12-11T01:17:04.304Z,929.6
2022-12-11T01:18:06.155Z,929.5
2022-12-11T01:19:07.841Z,929.4
2022-12-11T01:20:09.622Z,929.1
2022-12-11T01:21:11.388Z,929.2
2022-12-11T01:22:13.180Z,929.4
2022-12-11T01:23:15.004Z,929.5
2022-12-11T01:24:16.754Z,929.4
2022-12-11T01:25:18.413Z,929.5
2022-12-11T01:26:20.067Z,929.7
2022-12-11T01:27:21.800Z,929.8
2022-12-11T01:28:23.660Z,929.8
2022-12-11T01:29:25.460Z,929.8
2022-12-11T01:30:27.600Z,929.8
2022-12-11T01:31:29.481Z,929.8
2022-12-11T01:32:31.344Z,929.9
2022-12-11T01:33:33.197Z,930
2022-12-11T01:34:35.050Z,929.9
2022-12-11T01:35:36.795Z,929.8
2022-12-11T01:36:38.676Z,929.6
2022-12-11T01:37:40.697Z,929.5
2022-12-11T01:38:42.551Z,929.6
2022-12-11T01:39:44.292Z,929.5
2022-12-11T01:40:45.932Z,929.6
2022-12-11T01:41:47.710Z,929.5
2022-12-11T01:42:49.531Z,929.5
2022-12-11T01:43:51.183Z,929.5
2022-12-11T01:44:52.850Z,929.4
2022-12-11T01:45:54.796Z,929.1
2022-12-11T01:46:56.553Z,929.1
2022-12-11T01:47:58.299Z,929.1
2022-12-11T01:48:59.947Z,929.2
2022-12-11T01:50:01.592Z,929.3
2022-12-11T01:51:03.291Z,929.5
2022-12-11T01:52:05.082Z,929.6
2022-12-11T01:53:06.906Z,929.5
2022-12-11T01:54:08.766Z,929.5
2022-12-11T01:55:11.443Z,929.3
2022-12-11T01:56:13.785Z,929.5
2022-12-11T01:57:15.537Z,929.5
2022-12-11T01:58:17.261Z,929.3
2022-12-11T01:59:20.052Z,929.3
2022-12-11T02:00:21.912Z,929.4
2022-12-11T02:01:23.797Z,929.6
2022-12-11T02:02:26.071Z,929.7
2022-12-11T02:03:27.977Z,929.7
2022-12-11T02:04:29.642Z,929.5
2022-12-11T02:05:31.299Z,929.3
2022-12-11T02:06:33.039Z,929.5
2022-12-11T02:07:34.775Z,929.4
2022-12-11T02:08:36.700Z,929.4
2022-12-11T02:09:38.559Z,929.3
2022-12-11T02:10:40.223Z,929.3
2022-12-11T02:11:41.942Z,929.3
2022-12-11T02:12:43.617Z,929.3
2022-12-11T02:13:45.544Z,929.3
2022-12-11T02:14:47.184Z,929.3
2022-12-11T02:15:48.853Z,929.3
2022-12-11T02:16:50.501Z,929.3
2022-12-11T02:17:52.158Z,929.4
2022-12-11T02:18:53.942Z,929.4
2022-12-11T02:19:55.720Z,929.4
2022-12-11T02:20:57.377Z,929.3
2022-12-11T02:21:59.151Z,929.3
2022-12-11T02:23:00.978Z,929.3
2022-12-11T02:24:02.811Z,929.3
2022-12-11T02:25:04.670Z,929.2
2022-12-11T02:26:06.411Z,929.2
2022-12-11T02:27:08.261Z,929.1
2022-12-11T02:28:10.084Z,929.1
2022-12-11T02:29:14.773Z,929.1
2022-12-11T02:30:16.475Z,929
2022-12-11T02:31:18.497Z,929
2022-12-11T02:32:20.693Z,929
2022-12-11T02:33:22.453Z,929
2022-12-11T02:34:24.184Z,928.9
2022-12-11T02:35:25.836Z,928.8
2022-12-11T02:36:27.500Z,928.7
2022-12-11T02:37:29.323Z,928.7
2022-12-11T02:38:31.205Z,928.8
2022-12-11T02:39:33.120Z,928.8
2022-12-11T02:40:34.876Z,928.8
2022-12-11T02:41:36.582Z,928.7
2022-12-11T02:42:38.292Z,928.6
2022-12-11T02:43:39.933Z,928.5
2022-12-11T02:44:41.667Z,928.5
2022-12-11T02:45:43.643Z,928.4
2022-12-11T02:46:45.458Z,928.4
2022-12-11T02:47:47.423Z,928.4
2022-12-11T02:48:49.170Z,928.4
2022-12-11T02:49:51.114Z,928.5
2022-12-11T02:50:52.968Z,928.5
2022-12-11T02:51:54.817Z,928.5
2022-12-11T02:52:56.665Z,928.3
2022-12-11T02:53:58.357Z,928.4
2022-12-11T02:55:00.154Z,928.6
2022-12-11T02:56:01.907Z,928.6
2022-12-11T02:57:03.581Z,928.6
2022-12-11T02:58:05.420Z,928.6
2022-12-11T02:59:07.147Z,928.6
2022-12-11T03:00:08.862Z,928.7
2022-12-11T03:01:10.854Z,928.7
2022-12-11T03:02:12.852Z,928.8
2022-12-11T03:03:14.853Z,928.8
2022-12-11T03:04:16.597Z,928.9
2022-12-11T03:05:18.450Z,928.9
2022-12-11T03:06:20.303Z,928.9
2022-12-11T03:07:22.045Z,928.9
2022-12-11T03:08:24.028Z,928.9
2022-12-11T03:09:25.973Z,928.9
2022-12-11T03:10:27.700Z,929
2022-12-11T03:11:29.447Z,928.9
2022-12-11T03:12:31.206Z,928.9
2022-12-11T03:13:32.968Z,928.9
2022-12-11T03:14:34.593Z,928.9
2022-12-11T03:15:36.578Z,928.9
2022-12-11T03:16:38.511Z,928.9
2022-12-11T03:17:40.582Z,928.8
2022-12-11T03:18:42.402Z,928.7
2022-12-11T03:19:44.171Z,928.6
2022-12-11T03:20:45.915Z,928.5
2022-12-11T03:21:47.570Z,928.5
2022-12-11T03:22:49.154Z,928.6
2022-12-11T03:23:50.966Z,928.7
2022-12-11T03:24:52.589Z,928.7
2022-12-11T03:25:54.458Z,928.5
2022-12-11T03:27:00.938Z,928.7
2022-12-11T03:28:03.346Z,928.6
2022-12-11T03:29:05.097Z,928.6
2022-12-11T03:30:06.774Z,928.5
2022-12-11T03:31:08.831Z,928.5
2022-12-11T03:32:10.851Z,928.5
2022-12-11T03:33:12.807Z,928.5
2022-12-11T03:34:14.552Z,928.7
2022-12-11T03:35:16.690Z,928.8
2022-12-11T03:36:18.489Z,928.9
2022-12-11T03:37:20.304Z,928.8
2022-12-11T03:38:22.164Z,928.8
2022-12-11T03:39:23.826Z,928.7
2022-12-11T03:40:25.670Z,928.7
2022-12-11T03:41:27.606Z,928.7
2022-12-11T03:42:29.448Z,928.8
2022-12-11T03:43:31.132Z,929
2022-12-11T03:44:32.947Z,928.9
2022-12-11T03:45:34.680Z,929
2022-12-11T03:46:36.545Z,929
2022-12-11T03:47:38.324Z,929
2022-12-11T03:48:40.075Z,929
2022-12-11T03:49:41.719Z,929.1
2022-12-11T03:50:43.540Z,929
2022-12-11T03:51:45.290Z,929
2022-12-11T03:52:47.235Z,929
2022-12-11T03:53:49.060Z,929
2022-12-11T03:54:50.950Z,929
2022-12-11T03:55:52.815Z,929
2022-12-11T03:56:54.529Z,929.1
2022-12-11T03:57:56.393Z,929
2022-12-11T03:58:58.257Z,929.1
2022-12-11T04:00:00.198Z,929.1
2022-12-11T04:01:02.040Z,929.1
2022-12-11T04:02:04.025Z,929.2
2022-12-11T04:03:14.340Z,929.2
2022-12-11T04:04:16.750Z,929.2
2022-12-11T04:05:18.686Z,929.1
2022-12-11T04:06:20.609Z,929.1
2022-12-11T04:07:22.530Z,929
2022-12-11T04:08:24.653Z,929.1
2022-12-11T04:09:26.606Z,929.1
2022-12-11T04:10:28.235Z,929.1
2022-12-11T04:11:29.985Z,929.1
2022-12-11T04:12:31.915Z,929.1
2022-12-11T04:13:33.663Z,929.1
2022-12-11T04:14:35.495Z,929.2
2022-12-11T04:15:37.629Z,929.3
2022-12-11T04:16:39.416Z,929.4
2022-12-11T04:17:41.080Z,929.5
2022-12-11T04:18:42.732Z,929.5
2022-12-11T04:19:44.380Z,929.5
2022-12-11T04:20:46.204Z,929.4
2022-12-11T04:21:47.944Z,929.3
2022-12-11T04:22:49.788Z,929.3
2022-12-11T04:23:51.442Z,929.3
2022-12-11T04:24:56.018Z,929.3
2022-12-11T04:25:57.748Z,929.4
2022-12-11T04:26:59.515Z,929.4
2022-12-11T04:28:01.422Z,929.5
2022-12-11T04:29:03.369Z,929.5
2022-12-11T04:30:05.197Z,929.6
2022-12-11T04:31:07.210Z,929.6
2022-12-11T04:32:09.113Z,929.6
2022-12-11T04:33:10.861Z,929.6
2022-12-11T04:34:12.503Z,929.7
2022-12-11T04:35:14.282Z,929.7
2022-12-11T04:36:16.105Z,929.7
2022-12-11T04:37:17.776Z,929.7
2022-12-11T04:38:19.455Z,929.7
2022-12-11T04:39:21.336Z,929.8
2022-12-11T04:40:23.011Z,929.8
2022-12-11T04:41:24.750Z,929.8
2022-12-11T04:42:26.473Z,929.9
2022-12-11T04:43:28.242Z,929.9
2022-12-11T04:44:36.085Z,929.9
2022-12-11T04:45:37.872Z,929.9
2022-12-11T04:46:39.738Z,929.9
2022-12-11T04:47:41.773Z,929.8
2022-12-11T04:48:43.438Z,929.8
2022-12-11T04:49:45.202Z,929.8
2022-12-11T04:50:46.970Z,929.8
2022-12-11T04:51:48.780Z,929.9
2022-12-11T04:52:50.543Z,929.8
2022-12-11T04:53:52.191Z,929.8
2022-12-11T04:54:54.051Z,929.7
2022-12-11T04:55:55.681Z,929.9
2022-12-11T04:56:57.393Z,930
2022-12-11T04:57:59.037Z,929.9
2022-12-11T04:59:00.791Z,929.7
2022-12-11T05:00:02.638Z,929.7
2022-12-11T05:01:04.387Z,929.8
2022-12-11T05:02:06.224Z,930
2022-12-11T05:03:08.305Z,929.9
2022-12-11T05:04:10.171Z,929.8
2022-12-11T05:05:13.374Z,929.7
2022-12-11T05:06:15.684Z,929.7
2022-12-11T05:07:17.291Z,929.6
2022-12-11T05:08:19.204Z,929.7
2022-12-11T05:09:21.036Z,929.5
2022-12-11T05:10:22.892Z,929.6
2022-12-11T05:11:24.764Z,929.7
2022-12-11T05:12:26.586Z,929.9
2022-12-11T05:13:28.366Z,929.8
2022-12-11T05:14:30.174Z,929.9
2022-12-11T05:15:32.028Z,929.9
2022-12-11T05:16:34.398Z,929.9
2022-12-11T05:17:36.139Z,930
2022-12-11T05:18:38.095Z,930
2022-12-11T05:19:39.739Z,930
2022-12-11T05:20:41.584Z,930
2022-12-11T05:21:43.329Z,930.1
2022-12-11T05:22:45.003Z,930.2
2022-12-11T05:23:46.832Z,930.2
2022-12-11T05:24:48.572Z,930.1
2022-12-11T05:25:50.451Z,930
2022-12-11T05:26:52.100Z,930
2022-12-11T05:27:56.581Z,929.9
2022-12-11T05:28:58.348Z,929.8
2022-12-11T05:30:00.283Z,929.7
2022-12-11T05:31:02.499Z,929.9
2022-12-11T05:32:04.388Z,930
2022-12-11T05:33:06.072Z,930.1
2022-12-11T05:34:07.895Z,930.1
2022-12-11T05:35:10.611Z,930.1
2022-12-11T05:36:12.916Z,930.2
2022-12-11T05:37:14.714Z,930.1
2022-12-11T05:38:16.525Z,930.1
2022-12-11T05:39:18.290Z,930.1
2022-12-11T05:40:20.130Z,930.1
2022-12-11T05:41:21.866Z,929.9
2022-12-11T05:42:29.516Z,930
2022-12-11T05:43:31.299Z,929.9
2022-12-11T05:44:33.084Z,929.8
2022-12-11T05:45:34.788Z,929.8
2022-12-11T05:46:36.811Z,929.8
2022-12-11T05:47:38.798Z,929.8
2022-12-11T05:48:40.640Z,929.9
2022-12-11T05:49:42.314Z,929.7
2022-12-11T05:50:44.037Z,929.7
2022-12-11T05:51:48.656Z,929.7
2022-12-11T05:52:50.430Z,929.7
2022-12-11T05:53:52.148Z,929.7
2022-12-11T05:54:53.926Z,929.7
2022-12-11T05:55:55.968Z,929.7
2022-12-11T05:56:57.684Z,929.7
2022-12-11T05:57:59.456Z,929.6
2022-12-11T05:59:01.329Z,929.6
2022-12-11T06:00:03.042Z,929.5
2022-12-11T06:01:04.900Z,929.6
2022-12-11T06:02:07.142Z,929.7
2022-12-11T06:03:09.571Z,929.7
2022-12-11T06:04:11.785Z,929.7
2022-12-11T06:05:14.044Z,929.7
2022-12-11T06:06:15.891Z,929.6
2022-12-11T06:07:17.631Z,929.6
2022-12-11T06:08:19.653Z,929.6
2022-12-11T06:09:21.638Z,929.5
2022-12-11T06:10:23.317Z,929.5
2022-12-11T06:11:25.255Z,929.4
2022-12-11T06:12:26.997Z,929.6
2022-12-11T06:13:28.738Z,929.4
2022-12-11T06:14:30.595Z,929.9
2022-12-11T06:15:32.365Z,929.8
2022-12-11T06:16:34.514Z,929.8
2022-12-11T06:17:36.646Z,929.6
2022-12-11T06:18:38.399Z,929.4
2022-12-11T06:19:40.075Z,929.4
2022-12-11T06:20:41.987Z,929.5
2022-12-11T06:21:43.750Z,929.8
2022-12-11T06:22:45.490Z,930.1
2022-12-11T06:23:47.342Z,929.9
2022-12-11T06:24:48.976Z,930
2022-12-11T06:25:50.949Z,930.1
2022-12-11T06:26:52.824Z,930.2
2022-12-11T06:27:54.566Z,930.2
2022-12-11T06:28:56.495Z,930.3
2022-12-11T06:29:58.339Z,930.4
2022-12-11T06:31:00.202Z,930.5
2022-12-11T06:32:02.429Z,930.6
2022-12-11T06:33:04.524Z,930.7
2022-12-11T06:34:06.255Z,930.5
2022-12-11T06:35:08.432Z,930.5
2022-12-11T06:36:10.767Z,930.6
2022-12-11T06:37:12.519Z,930.7
2022-12-11T06:38:14.164Z,930.7
2022-12-11T06:39:18.872Z,930.7
2022-12-11T06:40:20.619Z,930.7
2022-12-11T06:41:22.481Z,930.6
2022-12-11T06:42:24.213Z,930.5
2022-12-11T06:43:25.983Z,930.6
2022-12-11T06:44:27.711Z,930.6
2022-12-11T06:45:29.786Z,930.5
2022-12-11T06:46:31.687Z,930.5
2022-12-11T06:47:33.689Z,930.4
2022-12-11T06:48:35.526Z,930.6
2022-12-11T06:49:37.267Z,930.6
2022-12-11T06:50:39.130Z,930.5
2022-12-11T06:51:40.916Z,930.5
2022-12-11T06:52:43.038Z,930.6
2022-12-11T06:53:44.775Z,930.6
2022-12-11T06:54:46.519Z,930.7
2022-12-11T06:55:48.374Z,930.5
2022-12-11T06:56:50.235Z,930.4
2022-12-11T06:57:52.384Z,930.5
2022-12-11T06:58:54.232Z,930.6
2022-12-11T06:59:55.866Z,930.6
2022-12-11T07:00:57.666Z,930.7
2022-12-11T07:01:59.832Z,930.7
2022-12-11T07:03:01.946Z,930.6
2022-12-11T07:04:03.760Z,930.6
2022-12-11T07:05:05.639Z,930.7
2022-12-11T07:06:07.488Z,930.6
2022-12-11T07:07:09.335Z,930.6
2022-12-11T07:08:11.330Z,930.6
2022-12-11T07:09:13.142Z,930.7
2022-12-11T07:10:14.814Z,930.8
2022-12-11T07:11:16.657Z,930.8
2022-12-11T07:12:18.305Z,930.8
2022-12-11T07:13:20.037Z,930.6
2022-12-11T07:14:21.750Z,930.7
2022-12-11T07:15:23.534Z,930.7
2022-12-11T07:16:25.665Z,930.7
2022-12-11T07:17:27.553Z,930.7
2022-12-11T07:18:29.379Z,930.7
2022-12-11T07:19:31.233Z,930.7
2022-12-11T07:20:33.079Z,930.6
2022-12-11T07:21:34.800Z,930.6
2022-12-11T07:22:46.922Z,930.6
2022-12-11T07:23:48.789Z,930.6
2022-12-11T07:24:50.621Z,930.6
2022-12-11T07:25:52.440Z,930.7
2022-12-11T07:26:54.216Z,930.7
2022-12-11T07:27:55.957Z,930.8
2022-12-11T07:28:57.827Z,930.8
2022-12-11T07:29:59.476Z,930.9
2022-12-11T07:31:01.410Z,930.8
2022-12-11T07:32:03.432Z,930.8
2022-12-11T07:33:05.553Z,930.8
2022-12-11T07:34:07.247Z,930.7
2022-12-11T07:35:10.273Z,930.8
2022-12-11T07:36:12.579Z,930.9
2022-12-11T07:37:14.349Z,930.9
2022-12-11T07:38:16.103Z,930.9
2022-12-11T07:39:17.741Z,930.9
2022-12-11T07:40:19.523Z,931
2022-12-11T07:41:21.239Z,930.9
2022-12-11T07:42:22.983Z,931
2022-12-11T07:43:24.740Z,931
2022-12-11T07:44:26.491Z,931
2022-12-11T07:45:28.572Z,931.1
2022-12-11T07:46:30.503Z,931
2022-12-11T07:47:32.345Z,931
2022-12-11T07:48:34.150Z,931
2022-12-11T07:49:39.092Z,931
2022-12-11T07:50:40.852Z,931.1
2022-12-11T07:51:42.610Z,931.1
2022-12-11T07:52:44.568Z,931.1
2022-12-11T07:53:46.414Z,931.2
2022-12-11T07:54:48.074Z,931.1
2022-12-11T07:55:49.735Z,931.1
2022-12-11T07:56:54.432Z,931.1
2022-12-11T07:57:56.277Z,931.1
2022-12-11T07:58:57.943Z,931.1
2022-12-11T07:59:59.624Z,931.1
2022-12-11T08:01:01.480Z,931.1
2022-12-11T08:02:03.470Z,931.1
2022-12-11T08:03:05.210Z,931
2022-12-11T08:04:06.977Z,931.1
2022-12-11T08:05:10.066Z,931.1
2022-12-11T08:06:12.535Z,931.2
2022-12-11T08:07:14.351Z,931.2
2022-12-11T08:08:16.245Z,931.2
2022-12-11T08:09:21.811Z,931.1
2022-12-11T08:10:23.685Z,931.2
2022-12-11T08:11:25.542Z,931.2
2022-12-11T08:12:27.395Z,931.2
2022-12-11T08:13:29.359Z,931.3
2022-12-11T08:14:31.025Z,931.2
2022-12-11T08:15:32.833Z,931.3
2022-12-11T08:16:34.812Z,931.4
2022-12-11T08:17:40.634Z,931.2
2022-12-11T08:18:42.393Z,931.3
2022-12-11T08:19:44.182Z,931.3
2022-12-11T08:20:45.971Z,931.1
2022-12-11T08:21:47.727Z,931.2
2022-12-11T08:22:55.968Z,931.1
2022-12-11T08:24:02.055Z,931.1
2022-12-11T08:25:03.847Z,931.1
2022-12-11T08:26:05.571Z,931.1
2022-12-11T08:27:07.332Z,931
2022-12-11T08:28:09.178Z,931
2022-12-11T08:29:11.023Z,931.1
2022-12-11T08:30:12.776Z,931
2022-12-11T08:31:15.019Z,931
2022-12-11T08:32:17.090Z,931
2022-12-11T08:33:18.833Z,931
2022-12-11T08:34:20.499Z,931.1
2022-12-11T08:35:28.120Z,931
2022-12-11T08:36:30.235Z,931
2022-12-11T08:37:32.071Z,930.9
2022-12-11T08:38:33.926Z,930.9
2022-12-11T08:39:35.694Z,930.9
2022-12-11T08:40:37.421Z,930.9
2022-12-11T08:41:39.158Z,930.9
2022-12-11T08:42:40.923Z,930.9
2022-12-11T08:43:42.753Z,930.9
2022-12-11T08:44:44.479Z,930.9
2022-12-11T08:45:46.260Z,931
2022-12-11T08:46:48.199Z,931
2022-12-11T08:47:50.025Z,930.9
2022-12-11T08:48:54.840Z,931
2022-12-11T08:49:56.722Z,931
2022-12-11T08:50:58.678Z,931
2022-12-11T08:52:00.439Z,930.9
2022-12-11T08:53:02.276Z,930.9
2022-12-11T08:54:04.134Z,930.9
2022-12-11T08:55:06.024Z,930.8
2022-12-11T08:56:07.825Z,930.8
2022-12-11T08:57:09.568Z,930.9
2022-12-11T08:58:11.336Z,930.9
2022-12-11T08:59:13.057Z,930.8
2022-12-11T09:00:14.821Z,930.9
2022-12-11T09:01:16.780Z,930.9
2022-12-11T09:02:18.735Z,930.9
2022-12-11T09:03:20.501Z,930.9
2022-12-11T09:04:22.142Z,930.9
2022-12-11T09:05:23.785Z,930.9
2022-12-11T09:06:25.599Z,930.9
2022-12-11T09:07:27.278Z,930.8
2022-12-11T09:08:29.364Z,930.9
2022-12-11T09:09:31.356Z,930.8
2022-12-11T09:10:33.185Z,930.9
2022-12-11T09:11:35.073Z,930.7
2022-12-11T09:12:36.725Z,930.7
2022-12-11T09:13:38.463Z,930.8
2022-12-11T09:14:40.270Z,930.8
2022-12-11T09:15:42.391Z,930.8
2022-12-11T09:16:44.240Z,930.7
2022-12-11T09:17:45.877Z,930.7
2022-12-11T09:18:47.602Z,930.6
2022-12-11T09:19:49.451Z,930.6
2022-12-11T09:20:51.089Z,930.5
2022-12-11T09:21:52.940Z,930.5
2022-12-11T09:22:54.713Z,930.5
2022-12-11T09:23:56.549Z,930.5
2022-12-11T09:24:58.390Z,930.6
2022-12-11T09:26:00.102Z,930.5
2022-12-11T09:27:01.904Z,930.5
2022-12-11T09:28:03.741Z,930.6
2022-12-11T09:29:05.486Z,930.5
2022-12-11T09:30:07.249Z,930.5
2022-12-11T09:31:09.209Z,930.5
2022-12-11T09:32:11.136Z,930.6
2022-12-11T09:33:12.995Z,930.5
2022-12-11T09:34:14.934Z,930.5
2022-12-11T09:35:16.708Z,930.5
2022-12-11T09:36:18.442Z,930.5
2022-12-11T09:37:20.381Z,930.5
2022-12-11T09:38:22.166Z,930.5
2022-12-11T09:39:23.996Z,930.4
2022-12-11T09:40:25.846Z,930.5
2022-12-11T09:41:27.649Z,930.5
2022-12-11T09:42:29.357Z,930.5
2022-12-11T09:43:31.176Z,930.4
2022-12-11T09:44:32.835Z,930.5
2022-12-11T09:45:34.680Z,930.5
2022-12-11T09:46:36.801Z,930.5
2022-12-11T09:47:38.731Z,930.4
2022-12-11T09:48:40.533Z,930.5
2022-12-11T09:49:42.379Z,930.5
2022-12-11T09:50:44.134Z,930.5
2022-12-11T09:51:45.981Z,930.5
2022-12-11T09:52:47.764Z,930.5
2022-12-11T09:53:49.654Z,930.5
2022-12-11T09:54:51.635Z,930.5
2022-12-11T09:55:53.398Z,930.6
2022-12-11T09:56:55.251Z,930.5
2022-12-11T09:57:59.737Z,930.5
2022-12-11T09:59:01.372Z,930.5
2022-12-11T10:00:06.311Z,930.5
2022-12-11T10:01:08.201Z,930.5
2022-12-11T10:02:10.463Z,930.6
2022-12-11T10:03:12.372Z,930.5
2022-12-11T10:04:14.005Z,930.6
2022-12-11T10:05:15.784Z,930.6
2022-12-11T10:06:17.508Z,930.6
2022-12-11T10:07:19.170Z,930.6
2022-12-11T10:08:21.125Z,930.6
2022-12-11T10:09:22.989Z,930.6
2022-12-11T10:10:24.805Z,930.5
2022-12-11T10:11:26.557Z,930.5
2022-12-11T10:12:28.270Z,930.6
2022-12-11T10:13:30.059Z,930.5
2022-12-11T10:14:32.047Z,930.5
2022-12-11T10:15:34.291Z,930.5
2022-12-11T10:16:36.030Z,930.6
2022-12-11T10:17:37.703Z,930.4
2022-12-11T10:18:39.480Z,930.5
2022-12-11T10:19:41.356Z,930.5
2022-12-11T10:20:43.162Z,930.5
2022-12-11T10:21:44.971Z,930.5
2022-12-11T10:22:46.633Z,930.6
2022-12-11T10:23:48.426Z,930.6
2022-12-11T10:25:20.294Z,930.6
2022-12-11T10:26:22.119Z,930.6
2022-12-11T10:27:24.012Z,930.6
2022-12-11T10:28:25.847Z,930.6
2022-12-11T10:29:27.598Z,930.6
2022-12-11T10:30:34.990Z,930.7
2022-12-11T10:31:37.005Z,930.6
2022-12-11T10:32:39.169Z,930.5
2022-12-11T10:33:40.891Z,930.6
2022-12-11T10:34:42.586Z,930.6
2022-12-11T10:35:44.852Z,930.6
2022-12-11T10:36:47.110Z,930.6
2022-12-11T10:37:48.847Z,930.6
2022-12-11T10:38:50.604Z,930.5
2022-12-11T10:39:52.340Z,930.5
2022-12-11T10:40:54.181Z,930.5
2022-12-11T10:41:56.044Z,930.5
2022-12-11T10:42:57.756Z,930.5
2022-12-11T10:43:59.431Z,930.5
2022-12-11T10:45:01.187Z,930.4
2022-12-11T10:46:03.189Z,930.5
2022-12-11T10:47:05.001Z,930.4
2022-12-11T10:48:06.769Z,930.4
2022-12-11T10:49:08.495Z,930.4
2022-12-11T10:50:10.346Z,930.3
2022-12-11T10:51:12.185Z,930.3
2022-12-11T10:52:14.034Z,930.3
2022-12-11T10:53:15.753Z,930.3
2022-12-11T10:54:17.641Z,930.3
2022-12-11T10:55:19.597Z,930.3
2022-12-11T10:56:21.486Z,930.3
2022-12-11T10:57:23.289Z,930.3
2022-12-11T10:58:25.056Z,930.3
2022-12-11T10:59:26.891Z,930.3
2022-12-11T11:00:28.759Z,930.2
2022-12-11T11:01:30.763Z,930.3
2022-12-11T11:02:33.198Z,930.3
2022-12-11T11:03:35.201Z,930.3
2022-12-11T11:04:36.873Z,930.2
2022-12-11T11:05:38.632Z,930.2
2022-12-11T11:06:40.450Z,930.2
2022-12-11T11:07:42.294Z,930.2
2022-12-11T11:08:44.016Z,930.2
2022-12-11T11:09:45.711Z,930.2
2022-12-11T11:10:47.455Z,930.2
2022-12-11T11:11:52.451Z,930.1
2022-12-11T11:12:54.308Z,930.2
2022-12-11T11:13:56.061Z,930.1
2022-12-11T11:14:57.845Z,930.1
2022-12-11T11:15:59.821Z,930.1
2022-12-11T11:17:01.704Z,930
2022-12-11T11:18:03.383Z,930.1
2022-12-11T11:19:05.106Z,930.1
2022-12-11T11:20:06.843Z,930.1
2022-12-11T11:21:08.528Z,930.1
2022-12-11T11:22:10.340Z,930.1
2022-12-11T11:23:12.034Z,930.1
2022-12-11T11:24:13.792Z,930.1
2022-12-11T11:25:15.482Z,930.1
2022-12-11T11:26:17.523Z,930.1
2022-12-11T11:27:22.389Z,930.1
2022-12-11T11:28:24.120Z,930.1
2022-12-11T11:29:25.854Z,930.1
2022-12-11T11:30:27.717Z,930.1
2022-12-11T11:31:29.801Z,930.1
2022-12-11T11:32:31.981Z,930.1
2022-12-11T11:33:33.763Z,930.1
2022-12-11T11:34:35.511Z,930.1
2022-12-11T11:35:45.978Z,930.1
2022-12-11T11:36:48.017Z,930
2022-12-11T11:37:49.631Z,930
2022-12-11T11:38:51.415Z,930
2022-12-11T11:39:53.138Z,929.9
2022-12-11T11:41:13.263Z,930
2022-12-11T11:42:17.039Z,930
2022-12-11T11:43:18.788Z,929.9
2022-12-11T11:44:20.638Z,929.9
2022-12-11T11:45:22.371Z,929.9
2022-12-11T11:46:24.385Z,930
2022-12-11T11:47:26.296Z,930
2022-12-11T11:48:31.020Z,930
2022-12-11T11:49:35.611Z,930.1
2022-12-11T11:50:37.356Z,930
2022-12-11T11:51:39.104Z,930
2022-12-11T11:52:40.785Z,930
2022-12-11T11:53:42.584Z,930
2022-12-11T11:54:44.295Z,929.9
2022-12-11T11:55:45.987Z,929.9
2022-12-11T11:56:47.748Z,929.8
2022-12-11T11:57:49.494Z,929.9
2022-12-11T11:58:51.462Z,929.9
2022-12-11T11:59:53.307Z,929.9
2022-12-11T12:00:55.038Z,929.9
2022-12-11T12:01:56.838Z,929.8
2022-12-11T12:03:01.669Z,929.8
2022-12-11T12:04:03.489Z,929.8
2022-12-11T12:05:05.214Z,929.8
2022-12-11T12:06:15.365Z,929.8
2022-12-11T12:07:17.163Z,929.8
2022-12-11T12:08:19.398Z,929.8
2022-12-11T12:09:21.719Z,929.8
2022-12-11T12:10:23.463Z,929.7
2022-12-11T12:11:25.082Z,929.7
2022-12-11T12:12:34.478Z,929.7
2022-12-11T12:13:52.445Z,929.7
2022-12-11T12:14:54.439Z,929.7
2022-12-11T12:15:56.391Z,929.7
2022-12-11T12:16:58.466Z,929.7
2022-12-11T12:18:00.599Z,929.7
2022-12-11T12:19:02.336Z,929.7
2022-12-11T12:20:04.086Z,929.7
2022-12-11T12:21:05.762Z,929.7
2022-12-11T12:22:07.471Z,929.7
2022-12-11T12:23:09.324Z,929.7
2022-12-11T12:24:11.068Z,929.7
2022-12-11T12:25:14.173Z,929.7
2022-12-11T12:26:16.106Z,929.7
2022-12-11T12:27:53.210Z,929.7
2022-12-11T12:28:55.408Z,929.7
2022-12-11T12:29:57.204Z,929.7
2022-12-11T12:30:59.037Z,929.7
2022-12-11T12:32:01.092Z,929.8
2022-12-11T12:33:02.842Z,929.8
2022-12-11T12:34:04.592Z,929.9
2022-12-11T12:35:06.343Z,929.9
2022-12-11T12:36:08.014Z,929.9
2022-12-11T12:37:09.654Z,930
2022-12-11T12:38:11.408Z,930
2022-12-11T12:39:13.116Z,930
2022-12-11T12:40:14.980Z,930
2022-12-11T12:41:16.718Z,930
2022-12-11T12:42:21.184Z,930.1
2022-12-11T12:43:22.987Z,930.2
2022-12-11T12:44:25.187Z,930.2
2022-12-11T12:45:27.390Z,930.2
2022-12-11T12:46:29.240Z,930.2
2022-12-11T12:47:30.953Z,930.3
2022-12-11T12:48:32.947Z,930.3
2022-12-11T12:49:34.687Z,930.3
2022-12-11T12:50:36.544Z,930.3
2022-12-11T12:51:38.224Z,930.3
2022-12-11T12:52:39.852Z,930.3
2022-12-11T12:53:41.793Z,930.3
2022-12-11T12:54:43.578Z,930.4
2022-12-11T12:55:45.273Z,930.4
2022-12-11T12:56:46.890Z,930.4
2022-12-11T12:57:48.692Z,930.5
2022-12-11T12:58:50.413Z,930.5
2022-12-11T12:59:52.274Z,930.6
2022-12-11T13:00:54.270Z,930.6
2022-12-11T13:01:56.330Z,930.5
2022-12-11T13:02:58.344Z,930.6
2022-12-11T13:04:00.177Z,930.7
2022-12-11T13:05:01.931Z,930.8
2022-12-11T13:06:03.682Z,930.9
2022-12-11T13:07:05.452Z,930.9
2022-12-11T13:08:07.497Z,930.9
2022-12-11T13:09:09.220Z,930.8
2022-12-11T13:10:10.871Z,930.8
2022-12-11T13:11:12.828Z,930.7
2022-12-11T13:12:14.565Z,930.8
2022-12-11T13:13:16.420Z,931
2022-12-11T13:14:18.189Z,931
2022-12-11T13:15:20.014Z,931
2022-12-11T13:16:22.048Z,930.9
2022-12-11T13:17:23.837Z,930.8
2022-12-11T13:18:25.591Z,930.8
2022-12-11T13:19:27.499Z,930.8
2022-12-11T13:20:29.374Z,931
2022-12-11T13:21:31.137Z,931.1
2022-12-11T13:22:32.975Z,931.2
2022-12-11T13:23:34.709Z,931.2
2022-12-11T13:24:36.466Z,931.2
2022-12-11T13:25:42.027Z,931.2